KRCR/RCR METAR and TAF weather

Enter ICAO airport designator
Station Type Date Time Source
KRCR METAR 2021/09/27 06:55 UTC NOAA

KRCR 270655Z AUTO 20009KT 10SM CLR 18/10 A2991 RMK AO2


Station Type Date Time Source
KRCR Decoded METAR 2021/09/27 06:55 UTC NOAA

Station name not available
Sep 27, 2021 - 02:55 AM EDT / 2021.09.27 0655 UTC
Wind: from the SSW (200 degrees) at 10 MPH (9 KT):0
Visibility: 10 mile(s):0
Sky conditions: clear
Temperature: 64 F (18 C)
Dew Point: 50 F (10 C)
Relative Humidity: 59%
Pressure (altimeter): 29.91 in. Hg (1012 hPa)
ob: KRCR 270655Z AUTO 20009KT 10SM CLR 18/10 A2991 RMK AO2
cycle: 7

Station Type Date Time Source
KRCR TAF UTC NOAA

Error!

Example: see airport list